sensor_id;sensor_type;location;lat;lon;timestamp;pressure;altitude;pressure_sealevel;temperature;humidity
28267;BME280;15525;45.568;5.448;2022-08-01T00:01:41;98150.81;;;27.46;39.52
28267;BME280;15525;45.568;5.448;2022-08-01T00:04:06;98157.09;;;27.43;39.57
28267;BME280;15525;45.568;5.448;2022-08-01T00:06:31;98149.97;;;27.38;40.00
28267;BME280;15525;45.568;5.448;2022-08-01T00:08:57;98146.69;;;27.26;40.42
28267;BME280;15525;45.568;5.448;2022-08-01T00:11:23;98143.94;;;27.26;40.22
28267;BME280;15525;45.568;5.448;2022-08-01T00:13:48;98138.75;;;27.21;40.18
28267;BME280;15525;45.568;5.448;2022-08-01T00:16:14;98139.31;;;27.04;40.32
28267;BME280;15525;45.568;5.448;2022-08-01T00:18:40;98147.47;;;26.97;40.51
28267;BME280;15525;45.568;5.448;2022-08-01T00:21:06;98144.34;;;26.98;40.80
28267;BME280;15525;45.568;5.448;2022-08-01T00:23:31;98151.34;;;26.92;40.45
28267;BME280;15525;45.568;5.448;2022-08-01T00:25:57;98145.88;;;26.96;40.39
28267;BME280;15525;45.568;5.448;2022-08-01T00:28:22;98138.03;;;26.94;40.33
28267;BME280;15525;45.568;5.448;2022-08-01T00:30:48;98141.97;;;26.97;40.17
28267;BME280;15525;45.568;5.448;2022-08-01T00:33:13;98138.97;;;26.79;40.54
28267;BME280;15525;45.568;5.448;2022-08-01T00:35:38;98140.44;;;26.70;40.45
28267;BME280;15525;45.568;5.448;2022-08-01T00:38:04;98137.53;;;26.59;41.04
28267;BME280;15525;45.568;5.448;2022-08-01T00:40:29;98144.56;;;26.57;41.05
28267;BME280;15525;45.568;5.448;2022-08-01T00:42:55;98141.75;;;26.53;41.04
28267;BME280;15525;45.568;5.448;2022-08-01T00:45:20;98136.78;;;26.36;41.32
28267;BME280;15525;45.568;5.448;2022-08-01T00:47:45;98140.00;;;26.16;41.89
28267;BME280;15525;45.568;5.448;2022-08-01T00:50:12;98145.03;;;26.14;41.92
28267;BME280;15525;45.568;5.448;2022-08-01T00:52:39;98140.72;;;26.13;42.17
28267;BME280;15525;45.568;5.448;2022-08-01T00:55:05;98141.88;;;26.12;42.25
28267;BME280;15525;45.568;5.448;2022-08-01T00:57:30;98136.22;;;26.01;42.41
28267;BME280;15525;45.568;5.448;2022-08-01T00:59:56;98138.75;;;25.91;42.39
28267;BME280;15525;45.568;5.448;2022-08-01T01:02:21;98144.19;;;25.87;42.56
28267;BME280;15525;45.568;5.448;2022-08-01T01:04:47;98141.78;;;26.05;42.11
28267;BME280;15525;45.568;5.448;2022-08-01T01:10:00;98133.34;;;26.43;41.66
28267;BME280;15525;45.568;5.448;2022-08-01T01:12:39;98138.88;;;26.46;41.78
28267;BME280;15525;45.568;5.448;2022-08-01T01:15:19;98139.19;;;26.41;41.30
28267;BME280;15525;45.568;5.448;2022-08-01T01:18:02;98127.00;;;26.39;41.70
28267;BME280;15525;45.568;5.448;2022-08-01T01:20:35;98136.72;;;26.33;41.74
28267;BME280;15525;45.568;5.448;2022-08-01T01:26:17;98143.09;;;26.14;42.82
28267;BME280;15525;45.568;5.448;2022-08-01T01:31:52;98131.66;;;25.90;42.95
28267;BME280;15525;45.568;5.448;2022-08-01T01:34:20;98127.84;;;25.72;43.36
28267;BME280;15525;45.568;5.448;2022-08-01T01:36:48;98132.03;;;25.66;43.44
28267;BME280;15525;45.568;5.448;2022-08-01T01:39:15;98130.28;;;25.54;44.05
28267;BME280;15525;45.568;5.448;2022-08-01T01:41:43;98126.41;;;25.36;44.54
28267;BME280;15525;45.568;5.448;2022-08-01T01:44:10;98125.13;;;25.30;44.38
28267;BME280;15525;45.568;5.448;2022-08-01T01:46:36;98130.25;;;25.32;44.42
28267;BME280;15525;45.568;5.448;2022-08-01T01:49:03;98127.22;;;25.37;44.07
28267;BME280;15525;45.568;5.448;2022-08-01T01:51:29;98127.31;;;25.44;43.92
28267;BME280;15525;45.568;5.448;2022-08-01T01:53:56;98124.47;;;25.37;44.35
28267;BME280;15525;45.568;5.448;2022-08-01T01:56:23;98129.75;;;25.26;44.68
28267;BME280;15525;45.568;5.448;2022-08-01T01:58:55;98126.09;;;25.22;45.11
28267;BME280;15525;45.568;5.448;2022-08-01T02:01:24;98126.28;;;25.29;44.58
28267;BME280;15525;45.568;5.448;2022-08-01T02:03:51;98127.06;;;25.11;44.69
28267;BME280;15525;45.568;5.448;2022-08-01T02:06:19;98125.59;;;25.17;44.66
28267;BME280;15525;45.568;5.448;2022-08-01T02:08:47;98130.72;;;25.18;44.74
28267;BME280;15525;45.568;5.448;2022-08-01T02:11:13;98125.88;;;25.12;45.20
28267;BME280;15525;45.568;5.448;2022-08-01T02:13:47;98137.16;;;25.07;45.53
28267;BME280;15525;45.568;5.448;2022-08-01T02:16:13;98134.28;;;25.00;45.54
28267;BME280;15525;45.568;5.448;2022-08-01T02:18:41;98133.81;;;24.98;45.47
28267;BME280;15525;45.568;5.448;2022-08-01T02:21:09;98129.81;;;24.92;45.85
28267;BME280;15525;45.568;5.448;2022-08-01T02:23:38;98132.09;;;24.90;45.92
28267;BME280;15525;45.568;5.448;2022-08-01T02:26:09;98129.84;;;24.76;46.21
28267;BME280;15525;45.568;5.448;2022-08-01T02:28:44;98124.03;;;24.78;46.24
28267;BME280;15525;45.568;5.448;2022-08-01T02:31:13;98124.31;;;24.73;46.25
28267;BME280;15525;45.568;5.448;2022-08-01T02:33:43;98126.47;;;24.83;45.62
28267;BME280;15525;45.568;5.448;2022-08-01T02:36:10;98129.56;;;24.81;45.53
28267;BME280;15525;45.568;5.448;2022-08-01T02:38:40;98134.97;;;24.78;45.89
28267;BME280;15525;45.568;5.448;2022-08-01T02:41:12;98133.06;;;24.63;46.15
28267;BME280;15525;45.568;5.448;2022-08-01T02:43:43;98126.09;;;24.65;45.90
28267;BME280;15525;45.568;5.448;2022-08-01T02:46:16;98131.66;;;24.69;46.06
28267;BME280;15525;45.568;5.448;2022-08-01T02:48:43;98123.72;;;24.64;45.88
28267;BME280;15525;45.568;5.448;2022-08-01T02:51:10;98127.59;;;24.63;45.96
28267;BME280;15525;45.568;5.448;2022-08-01T02:53:38;98132.72;;;24.49;46.45
28267;BME280;15525;45.568;5.448;2022-08-01T02:56:08;98127.09;;;24.42;46.68
28267;BME280;15525;45.568;5.448;2022-08-01T02:58:35;98127.88;;;24.42;46.46
28267;BME280;15525;45.568;5.448;2022-08-01T03:01:04;98128.84;;;24.50;46.08
28267;BME280;15525;45.568;5.448;2022-08-01T03:03:31;98124.50;;;24.49;46.03
28267;BME280;15525;45.568;5.448;2022-08-01T03:05:58;98119.03;;;24.49;45.94
28267;BME280;15525;45.568;5.448;2022-08-01T03:08:25;98125.53;;;24.41;46.12
28267;BME280;15525;45.568;5.448;2022-08-01T03:10:52;98117.59;;;24.36;46.29
28267;BME280;15525;45.568;5.448;2022-08-01T03:13:21;98121.44;;;24.35;46.67
28267;BME280;15525;45.568;5.448;2022-08-01T03:15:47;98119.34;;;24.28;46.75
28267;BME280;15525;45.568;5.448;2022-08-01T03:18:14;98118.91;;;24.26;46.69
28267;BME280;15525;45.568;5.448;2022-08-01T03:20:42;98116.38;;;24.18;46.91
28267;BME280;15525;45.568;5.448;2022-08-01T03:23:10;98122.75;;;24.06;47.37
28267;BME280;15525;45.568;5.448;2022-08-01T03:25:39;98120.78;;;24.07;47.55
28267;BME280;15525;45.568;5.448;2022-08-01T03:28:07;98124.41;;;24.11;46.98
28267;BME280;15525;45.568;5.448;2022-08-01T03:30:35;98122.66;;;24.03;47.46
28267;BME280;15525;45.568;5.448;2022-08-01T03:33:02;98125.63;;;23.82;47.68
28267;BME280;15525;45.568;5.448;2022-08-01T03:35:37;98118.06;;;23.91;47.96
28267;BME280;15525;45.568;5.448;2022-08-01T03:38:05;98124.59;;;23.87;47.43
28267;BME280;15525;45.568;5.448;2022-08-01T03:40:39;98115.44;;;23.95;47.80
28267;BME280;15525;45.568;5.448;2022-08-01T03:43:11;98126.38;;;23.95;47.40
28267;BME280;15525;45.568;5.448;2022-08-01T03:45:40;98128.56;;;23.89;47.23
28267;BME280;15525;45.568;5.448;2022-08-01T03:48:14;98131.09;;;23.82;47.74
28267;BME280;15525;45.568;5.448;2022-08-01T03:50:43;98123.88;;;23.59;48.22
28267;BME280;15525;45.568;5.448;2022-08-01T03:53:10;98125.25;;;23.53;48.48
28267;BME280;15525;45.568;5.448;2022-08-01T03:55:39;98122.09;;;23.51;48.50
28267;BME280;15525;45.568;5.448;2022-08-01T03:58:07;98135.75;;;23.51;48.52
28267;BME280;15525;45.568;5.448;2022-08-01T04:00:38;98128.34;;;23.67;47.78
28267;BME280;15525;45.568;5.448;2022-08-01T04:03:06;98131.00;;;23.79;47.40
28267;BME280;15525;45.568;5.448;2022-08-01T04:05:32;98133.13;;;23.85;47.30
28267;BME280;15525;45.568;5.448;2022-08-01T04:07:58;98134.22;;;23.81;47.51
28267;BME280;15525;45.568;5.448;2022-08-01T04:10:25;98125.38;;;23.72;47.77
28267;BME280;15525;45.568;5.448;2022-08-01T04:12:51;98133.38;;;23.65;47.93
28267;BME280;15525;45.568;5.448;2022-08-01T04:15:17;98135.63;;;23.32;48.74
28267;BME280;15525;45.568;5.448;2022-08-01T04:17:43;98131.91;;;23.24;49.05
28267;BME280;15525;45.568;5.448;2022-08-01T04:20:09;98134.69;;;23.40;48.23
28267;BME280;15525;45.568;5.448;2022-08-01T04:22:35;98133.56;;;23.56;47.96
28267;BME280;15525;45.568;5.448;2022-08-01T04:25:06;98133.44;;;23.53;48.42
28267;BME280;15525;45.568;5.448;2022-08-01T04:27:36;98139.00;;;23.41;48.65
28267;BME280;15525;45.568;5.448;2022-08-01T04:30:03;98136.41;;;23.32;49.00
28267;BME280;15525;45.568;5.448;2022-08-01T04:32:32;98142.00;;;23.36;48.67
28267;BME280;15525;45.568;5.448;2022-08-01T04:35:00;98140.28;;;23.31;48.83
28267;BME280;15525;45.568;5.448;2022-08-01T04:37:28;98143.41;;;23.18;49.05
28267;BME280;15525;45.568;5.448;2022-08-01T04:39:54;98147.63;;;23.15;49.23
28267;BME280;15525;45.568;5.448;2022-08-01T04:42:21;98149.34;;;23.20;48.99
28267;BME280;15525;45.568;5.448;2022-08-01T04:44:47;98146.09;;;23.30;48.71
28267;BME280;15525;45.568;5.448;2022-08-01T04:47:13;98152.91;;;23.36;48.67
28267;BME280;15525;45.568;5.448;2022-08-01T04:49:39;98152.66;;;23.41;48.51
28267;BME280;15525;45.568;5.448;2022-08-01T04:52:05;98151.09;;;23.40;48.72
28267;BME280;15525;45.568;5.448;2022-08-01T04:54:34;98159.63;;;23.38;48.74
28267;BME280;15525;45.568;5.448;2022-08-01T04:57:03;98149.81;;;23.22;48.74
28267;BME280;15525;45.568;5.448;2022-08-01T04:59:29;98156.19;;;23.14;49.14
28267;BME280;15525;45.568;5.448;2022-08-01T05:02:15;98153.66;;;23.21;49.25
28267;BME280;15525;45.568;5.448;2022-08-01T05:04:41;98152.06;;;23.47;49.45
28267;BME280;15525;45.568;5.448;2022-08-01T05:07:07;98152.88;;;23.20;48.89
28267;BME280;15525;45.568;5.448;2022-08-01T05:09:33;98151.03;;;23.24;48.89
28267;BME280;15525;45.568;5.448;2022-08-01T05:12:00;98152.75;;;23.17;49.37
28267;BME280;15525;45.568;5.448;2022-08-01T05:14:27;98163.22;;;23.27;49.01
28267;BME280;15525;45.568;5.448;2022-08-01T05:16:54;98166.06;;;23.46;48.58
28267;BME280;15525;45.568;5.448;2022-08-01T05:19:20;98164.28;;;23.38;48.80
28267;BME280;15525;45.568;5.448;2022-08-01T05:21:45;98163.06;;;23.35;49.15
28267;BME280;15525;45.568;5.448;2022-08-01T05:24:11;98173.09;;;23.31;49.39
28267;BME280;15525;45.568;5.448;2022-08-01T05:26:38;98175.25;;;23.26;49.52
28267;BME280;15525;45.568;5.448;2022-08-01T05:29:03;98166.47;;;23.32;49.33
28267;BME280;15525;45.568;5.448;2022-08-01T05:31:29;98167.56;;;23.43;48.97
28267;BME280;15525;45.568;5.448;2022-08-01T05:33:54;98161.00;;;23.60;48.46
28267;BME280;15525;45.568;5.448;2022-08-01T05:36:19;98164.44;;;23.72;48.63
28267;BME280;15525;45.568;5.448;2022-08-01T05:38:45;98158.19;;;23.72;48.69
28267;BME280;15525;45.568;5.448;2022-08-01T05:41:10;98151.38;;;23.81;48.54
28267;BME280;15525;45.568;5.448;2022-08-01T05:43:36;98157.78;;;24.01;48.11
28267;BME280;15525;45.568;5.448;2022-08-01T05:46:02;98169.41;;;24.13;48.02
28267;BME280;15525;45.568;5.448;2022-08-01T05:48:27;98166.75;;;24.17;47.94
28267;BME280;15525;45.568;5.448;2022-08-01T05:50:53;98162.78;;;24.30;47.37
28267;BME280;15525;45.568;5.448;2022-08-01T05:53:18;98166.13;;;24.39;47.44
28267;BME280;15525;45.568;5.448;2022-08-01T05:55:44;98175.84;;;24.36;47.62
28267;BME280;15525;45.568;5.448;2022-08-01T05:58:09;98171.44;;;24.47;47.15
28267;BME280;15525;45.568;5.448;2022-08-01T06:00:35;98173.16;;;24.71;46.49
28267;BME280;15525;45.568;5.448;2022-08-01T06:03:00;98170.72;;;24.85;46.46
28267;BME280;15525;45.568;5.448;2022-08-01T06:05:25;98178.66;;;24.90;46.06
28267;BME280;15525;45.568;5.448;2022-08-01T06:07:51;98176.66;;;25.06;45.84
28267;BME280;15525;45.568;5.448;2022-08-01T06:10:16;98182.00;;;25.18;46.00
28267;BME280;15525;45.568;5.448;2022-08-01T06:12:42;98183.41;;;25.27;46.27
28267;BME280;15525;45.568;5.448;2022-08-01T06:15:09;98182.41;;;25.35;45.86
28267;BME280;15525;45.568;5.448;2022-08-01T06:17:34;98177.91;;;25.46;45.49
28267;BME280;15525;45.568;5.448;2022-08-01T06:20:00;98166.56;;;25.48;45.48
28267;BME280;15525;45.568;5.448;2022-08-01T06:22:25;98172.56;;;25.53;45.08
28267;BME280;15525;45.568;5.448;2022-08-01T06:24:51;98174.84;;;25.51;44.84
28267;BME280;15525;45.568;5.448;2022-08-01T06:27:16;98174.19;;;25.58;44.85
28267;BME280;15525;45.568;5.448;2022-08-01T06:29:42;98179.78;;;25.61;44.49
28267;BME280;15525;45.568;5.448;2022-08-01T06:32:08;98166.78;;;25.81;44.02
28267;BME280;15525;45.568;5.448;2022-08-01T06:34:35;98170.19;;;25.93;43.71
28267;BME280;15525;45.568;5.448;2022-08-01T06:37:00;98167.63;;;26.04;43.67
28267;BME280;15525;45.568;5.448;2022-08-01T06:39:25;98170.44;;;26.07;43.54
28267;BME280;15525;45.568;5.448;2022-08-01T06:41:51;98172.19;;;26.19;43.19
28267;BME280;15525;45.568;5.448;2022-08-01T06:44:16;98170.50;;;26.11;43.19
28267;BME280;15525;45.568;5.448;2022-08-01T06:46:42;98174.94;;;26.45;42.61
28267;BME280;15525;45.568;5.448;2022-08-01T06:49:07;98175.78;;;26.49;42.39
28267;BME280;15525;45.568;5.448;2022-08-01T06:51:32;98165.53;;;26.68;42.19
28267;BME280;15525;45.568;5.448;2022-08-01T06:53:58;98171.22;;;26.82;41.74
28267;BME280;15525;45.568;5.448;2022-08-01T06:56:23;98170.31;;;27.01;41.20
28267;BME280;15525;45.568;5.448;2022-08-01T06:58:50;98174.97;;;26.97;41.12
28267;BME280;15525;45.568;5.448;2022-08-01T07:01:15;98172.94;;;26.94;41.36
28267;BME280;15525;45.568;5.448;2022-08-01T07:03:41;98177.47;;;27.09;41.17
28267;BME280;15525;45.568;5.448;2022-08-01T07:06:06;98174.53;;;27.24;40.93
28267;BME280;15525;45.568;5.448;2022-08-01T07:08:31;98177.50;;;27.42;40.79
28267;BME280;15525;45.568;5.448;2022-08-01T07:10:57;98167.97;;;27.69;40.38
28267;BME280;15525;45.568;5.448;2022-08-01T07:13:27;98169.63;;;27.77;40.30
28267;BME280;15525;45.568;5.448;2022-08-01T07:15:53;98174.13;;;27.92;40.05
28267;BME280;15525;45.568;5.448;2022-08-01T07:18:19;98180.19;;;28.08;39.71
28267;BME280;15525;45.568;5.448;2022-08-01T07:20:44;98184.25;;;28.21;39.73
28267;BME280;15525;45.568;5.448;2022-08-01T07:23:12;98170.97;;;28.37;39.38
28267;BME280;15525;45.568;5.448;2022-08-01T07:25:37;98182.22;;;28.65;39.20
28267;BME280;15525;45.568;5.448;2022-08-01T07:28:03;98186.97;;;28.68;38.87
28267;BME280;15525;45.568;5.448;2022-08-01T07:30:28;98185.94;;;28.87;38.75
28267;BME280;15525;45.568;5.448;2022-08-01T07:32:54;98179.41;;;29.16;38.47
28267;BME280;15525;45.568;5.448;2022-08-01T07:35:19;98177.44;;;29.20;38.22
28267;BME280;15525;45.568;5.448;2022-08-01T07:37:44;98177.06;;;29.21;37.96
28267;BME280;15525;45.568;5.448;2022-08-01T07:40:10;98169.69;;;29.53;37.35
28267;BME280;15525;45.568;5.448;2022-08-01T07:42:36;98167.78;;;29.82;36.80
28267;BME280;15525;45.568;5.448;2022-08-01T07:45:01;98173.75;;;30.05;36.50
28267;BME280;15525;45.568;5.448;2022-08-01T07:47:26;98177.28;;;30.09;36.17
28267;BME280;15525;45.568;5.448;2022-08-01T07:49:58;98166.69;;;30.21;35.88
28267;BME280;15525;45.568;5.448;2022-08-01T07:52:24;98163.13;;;30.45;35.72
28267;BME280;15525;45.568;5.448;2022-08-01T07:54:49;98180.09;;;30.47;35.63
28267;BME280;15525;45.568;5.448;2022-08-01T07:57:14;98167.44;;;30.60;35.42
28267;BME280;15525;45.568;5.448;2022-08-01T07:59:40;98160.75;;;30.54;35.55
28267;BME280;15525;45.568;5.448;2022-08-01T08:02:05;98158.00;;;30.68;35.16
28267;BME280;15525;45.568;5.448;2022-08-01T08:04:31;98164.66;;;30.88;34.77
28267;BME280;15525;45.568;5.448;2022-08-01T08:06:56;98149.94;;;31.12;34.37
28267;BME280;15525;45.568;5.448;2022-08-01T08:09:22;98149.75;;;31.61;33.26
28267;BME280;15525;45.568;5.448;2022-08-01T08:11:48;98156.31;;;31.88;32.80
28267;BME280;15525;45.568;5.448;2022-08-01T08:14:14;98157.19;;;31.78;32.64
28267;BME280;15525;45.568;5.448;2022-08-01T08:16:40;98156.38;;;31.81;32.28
28267;BME280;15525;45.568;5.448;2022-08-01T08:19:05;98155.25;;;31.68;32.63
28267;BME280;15525;45.568;5.448;2022-08-01T08:21:30;98156.03;;;31.65;32.89
28267;BME280;15525;45.568;5.448;2022-08-01T08:23:56;98150.13;;;31.63;32.98
28267;BME280;15525;45.568;5.448;2022-08-01T08:26:40;98149.13;;;31.98;32.46
28267;BME280;15525;45.568;5.448;2022-08-01T08:29:06;98148.91;;;32.26;32.09
28267;BME280;15525;45.568;5.448;2022-08-01T08:31:31;98158.28;;;32.42;31.99
28267;BME280;15525;45.568;5.448;2022-08-01T08:33:57;98155.88;;;32.44;31.75
28267;BME280;15525;45.568;5.448;2022-08-01T08:36:23;98156.59;;;32.55;31.69
28267;BME280;15525;45.568;5.448;2022-08-01T08:38:48;98142.00;;;32.88;31.23
28267;BME280;15525;45.568;5.448;2022-08-01T08:41:14;98151.94;;;33.19;31.29
28267;BME280;15525;45.568;5.448;2022-08-01T08:43:39;98143.47;;;33.33;31.24
28267;BME280;15525;45.568;5.448;2022-08-01T08:46:07;98145.88;;;32.98;31.32
28267;BME280;15525;45.568;5.448;2022-08-01T08:48:33;98139.25;;;33.18;30.84
28267;BME280;15525;45.568;5.448;2022-08-01T08:51:00;98137.41;;;33.68;30.62
28267;BME280;15525;45.568;5.448;2022-08-01T08:53:27;98129.63;;;33.86;30.43
28267;BME280;15525;45.568;5.448;2022-08-01T08:55:53;98142.63;;;33.66;30.58
28267;BME280;15525;45.568;5.448;2022-08-01T08:58:20;98140.84;;;33.79;30.35
28267;BME280;15525;45.568;5.448;2022-08-01T09:00:46;98141.13;;;33.88;30.31
28267;BME280;15525;45.568;5.448;2022-08-01T09:03:12;98135.22;;;34.09;29.45
28267;BME280;15525;45.568;5.448;2022-08-01T09:05:37;98136.84;;;34.33;29.42
28267;BME280;15525;45.568;5.448;2022-08-01T09:08:06;98139.53;;;34.60;28.98
28267;BME280;15525;45.568;5.448;2022-08-01T09:10:32;98128.28;;;34.90;28.73
28267;BME280;15525;45.568;5.448;2022-08-01T09:13:09;98134.47;;;35.17;27.99
28267;BME280;15525;45.568;5.448;2022-08-01T09:15:56;98139.97;;;35.20;27.27
28267;BME280;15525;45.568;5.448;2022-08-01T09:18:39;98135.44;;;35.66;27.07
28267;BME280;15525;45.568;5.448;2022-08-01T09:23:50;98133.88;;;36.00;25.97
28267;BME280;15525;45.568;5.448;2022-08-01T09:26:20;98132.38;;;35.96;26.85
28267;BME280;15525;45.568;5.448;2022-08-01T09:28:47;98141.44;;;36.16;26.08
28267;BME280;15525;45.568;5.448;2022-08-01T09:31:17;98140.75;;;36.12;26.10
28267;BME280;15525;45.568;5.448;2022-08-01T09:34:01;98143.19;;;36.10;25.67
28267;BME280;15525;45.568;5.448;2022-08-01T09:36:48;98140.25;;;36.49;25.58
28267;BME280;15525;45.568;5.448;2022-08-01T09:39:19;98140.03;;;36.56;25.92
28267;BME280;15525;45.568;5.448;2022-08-01T09:41:45;98135.03;;;36.63;25.56
28267;BME280;15525;45.568;5.448;2022-08-01T09:44:10;98139.59;;;36.57;25.55
28267;BME280;15525;45.568;5.448;2022-08-01T09:46:48;98132.69;;;36.78;24.66
28267;BME280;15525;45.568;5.448;2022-08-01T09:49:14;98130.63;;;36.94;24.98
28267;BME280;15525;45.568;5.448;2022-08-01T09:51:39;98136.75;;;36.89;24.93
28267;BME280;15525;45.568;5.448;2022-08-01T09:54:06;98140.88;;;37.13;24.46
28267;BME280;15525;45.568;5.448;2022-08-01T09:56:40;98130.50;;;36.85;24.05
28267;BME280;15525;45.568;5.448;2022-08-01T09:59:07;98138.97;;;36.82;24.73
28267;BME280;15525;45.568;5.448;2022-08-01T10:01:45;98135.31;;;37.67;24.10
28267;BME280;15525;45.568;5.448;2022-08-01T10:04:19;98125.59;;;37.59;23.92
28267;BME280;15525;45.568;5.448;2022-08-01T10:06:47;98126.31;;;37.47;24.00
28267;BME280;15525;45.568;5.448;2022-08-01T10:09:15;98135.50;;;37.47;24.07
28267;BME280;15525;45.568;5.448;2022-08-01T10:11:51;98110.81;;;37.58;23.85
28267;BME280;15525;45.568;5.448;2022-08-01T10:14:17;98117.91;;;38.13;23.17
28267;BME280;15525;45.568;5.448;2022-08-01T10:16:45;98115.72;;;38.29;22.89
28267;BME280;15525;45.568;5.448;2022-08-01T10:19:11;98120.41;;;38.32;23.32
28267;BME280;15525;45.568;5.448;2022-08-01T10:21:38;98108.09;;;38.76;22.58
28267;BME280;15525;45.568;5.448;2022-08-01T10:24:05;98109.72;;;38.86;22.29
28267;BME280;15525;45.568;5.448;2022-08-01T10:26:33;98108.69;;;38.71;22.98
28267;BME280;15525;45.568;5.448;2022-08-01T10:28:59;98101.31;;;38.65;22.32
28267;BME280;15525;45.568;5.448;2022-08-01T10:31:25;98105.69;;;38.87;21.86
28267;BME280;15525;45.568;5.448;2022-08-01T10:33:52;98104.44;;;38.67;22.05
28267;BME280;15525;45.568;5.448;2022-08-01T10:36:19;98097.81;;;38.27;21.80
28267;BME280;15525;45.568;5.448;2022-08-01T10:38:46;98093.38;;;37.67;22.59
28267;BME280;15525;45.568;5.448;2022-08-01T10:41:12;98096.00;;;37.33;22.70
28267;BME280;15525;45.568;5.448;2022-08-01T10:43:40;98085.91;;;37.64;22.66
28267;BME280;15525;45.568;5.448;2022-08-01T10:46:06;98086.47;;;38.43;21.66
28267;BME280;15525;45.568;5.448;2022-08-01T10:48:56;98089.16;;;38.80;21.32
28267;BME280;15525;45.568;5.448;2022-08-01T10:51:25;98077.34;;;39.50;21.27
28267;BME280;15525;45.568;5.448;2022-08-01T10:53:53;98083.47;;;39.97;20.87
28267;BME280;15525;45.568;5.448;2022-08-01T10:56:19;98083.34;;;40.09;20.44
28267;BME280;15525;45.568;5.448;2022-08-01T10:58:46;98080.97;;;39.99;20.51
28267;BME280;15525;45.568;5.448;2022-08-01T11:01:26;98080.44;;;40.31;19.62
28267;BME280;15525;45.568;5.448;2022-08-01T11:06:35;98060.97;;;39.27;20.70
28267;BME280;15525;45.568;5.448;2022-08-01T11:09:05;98053.66;;;38.99;21.06
28267;BME280;15525;45.568;5.448;2022-08-01T11:12:13;98057.50;;;39.14;20.43
28267;BME280;15525;45.568;5.448;2022-08-01T11:17:35;98053.94;;;40.77;19.38
28267;BME280;15525;45.568;5.448;2022-08-01T11:20:16;98050.91;;;40.08;19.12
28267;BME280;15525;45.568;5.448;2022-08-01T11:30:49;98053.13;;;40.22;19.02
28267;BME280;15525;45.568;5.448;2022-08-01T11:33:17;98035.09;;;39.14;19.00
28267;BME280;15525;45.568;5.448;2022-08-01T11:41:12;98042.16;;;40.06;18.94
28267;BME280;15525;45.568;5.448;2022-08-01T11:43:58;98029.94;;;40.58;19.20
28267;BME280;15525;45.568;5.448;2022-08-01T11:46:58;98032.97;;;40.15;19.17
28267;BME280;15525;45.568;5.448;2022-08-01T11:52:04;98022.00;;;39.90;18.56
28267;BME280;15525;45.568;5.448;2022-08-01T11:54:42;98025.41;;;39.76;18.21
28267;BME280;15525;45.568;5.448;2022-08-01T11:57:18;98025.69;;;40.26;17.96
28267;BME280;15525;45.568;5.448;2022-08-01T11:59:46;98029.91;;;40.49;17.77
28267;BME280;15525;45.568;5.448;2022-08-01T12:07:16;98009.06;;;39.44;18.03
28267;BME280;15525;45.568;5.448;2022-08-01T12:09:42;98016.19;;;39.66;18.08
28267;BME280;15525;45.568;5.448;2022-08-01T12:12:08;98010.78;;;39.90;18.03
28267;BME280;15525;45.568;5.448;2022-08-01T12:14:34;98000.88;;;40.79;17.58
28267;BME280;15525;45.568;5.448;2022-08-01T12:16:59;97993.56;;;40.72;17.37
28267;BME280;15525;45.568;5.448;2022-08-01T12:19:24;97988.25;;;41.34;16.68
28267;BME280;15525;45.568;5.448;2022-08-01T12:22:10;98000.41;;;41.73;15.70
28267;BME280;15525;45.568;5.448;2022-08-01T12:24:36;98003.28;;;41.22;17.23
28267;BME280;15525;45.568;5.448;2022-08-01T12:27:03;98002.75;;;40.55;17.08
28267;BME280;15525;45.568;5.448;2022-08-01T12:32:02;97996.78;;;40.89;17.06
28267;BME280;15525;45.568;5.448;2022-08-01T12:34:28;97989.66;;;40.70;17.26
28267;BME280;15525;45.568;5.448;2022-08-01T12:36:58;97994.00;;;40.89;16.86
28267;BME280;15525;45.568;5.448;2022-08-01T12:39:34;98005.34;;;41.54;16.63
28267;BME280;15525;45.568;5.448;2022-08-01T12:42:00;97996.34;;;40.90;16.80
28267;BME280;15525;45.568;5.448;2022-08-01T12:44:27;98008.53;;;40.33;17.07
28267;BME280;15525;45.568;5.448;2022-08-01T12:46:55;97993.84;;;40.74;17.10
28267;BME280;15525;45.568;5.448;2022-08-01T12:49:21;97995.06;;;41.00;16.42
28267;BME280;15525;45.568;5.448;2022-08-01T12:51:47;97997.69;;;41.13;16.53
28267;BME280;15525;45.568;5.448;2022-08-01T12:54:13;98002.16;;;40.69;16.67
28267;BME280;15525;45.568;5.448;2022-08-01T12:56:38;97994.50;;;40.60;16.68
28267;BME280;15525;45.568;5.448;2022-08-01T12:59:23;97990.28;;;40.65;16.60
28267;BME280;15525;45.568;5.448;2022-08-01T13:01:51;97994.28;;;41.00;16.50
28267;BME280;15525;45.568;5.448;2022-08-01T13:04:16;97995.25;;;40.79;16.70
28267;BME280;15525;45.568;5.448;2022-08-01T13:06:42;97989.41;;;41.51;16.21
28267;BME280;15525;45.568;5.448;2022-08-01T13:09:09;97998.75;;;41.90;15.63
28267;BME280;15525;45.568;5.448;2022-08-01T13:11:36;97988.34;;;42.28;15.43
28267;BME280;15525;45.568;5.448;2022-08-01T13:14:02;97996.97;;;41.45;15.94
28267;BME280;15525;45.568;5.448;2022-08-01T13:16:27;97999.25;;;41.56;15.41
28267;BME280;15525;45.568;5.448;2022-08-01T13:18:55;97998.72;;;42.22;15.31
28267;BME280;15525;45.568;5.448;2022-08-01T13:21:26;97990.63;;;42.53;15.19
28267;BME280;15525;45.568;5.448;2022-08-01T13:24:09;97987.50;;;42.13;14.59
28267;BME280;15525;45.568;5.448;2022-08-01T13:29:06;97986.44;;;41.78;15.27
28267;BME280;15525;45.568;5.448;2022-08-01T13:31:41;97991.31;;;41.78;15.68
28267;BME280;15525;45.568;5.448;2022-08-01T13:34:07;97996.81;;;42.66;15.04
28267;BME280;15525;45.568;5.448;2022-08-01T13:36:33;97992.94;;;42.40;15.32
28267;BME280;15525;45.568;5.448;2022-08-01T13:38:59;97981.84;;;43.18;14.32
28267;BME280;15525;45.568;5.448;2022-08-01T13:41:44;97989.59;;;42.65;14.42
28267;BME280;15525;45.568;5.448;2022-08-01T13:44:10;97986.00;;;42.94;15.07
28267;BME280;15525;45.568;5.448;2022-08-01T13:46:37;97984.66;;;41.66;14.75
28267;BME280;15525;45.568;5.448;2022-08-01T13:49:04;97972.88;;;41.53;15.31